Time;durP1;ratioP1;P1;durP2;ratioP2;P2;SDS_P1;SDS_P2;PMS_P1;PMS_P2;Temp;Humidity;BMP_temperature;BMP_pressure;BME280_temperature;BME280_humidity;BME280_pressure;Samples;Min_cycle;Max_cycle;Signal;HPM_P1;HPM_P2
2022/12/18 00:01:33;;;;;;;59.65;31.00;;;;;;;;;;4928015;28;99391;-70
2022/12/18 00:04:00;;;;;;;67.07;32.72;;;;;;;;;;4927092;28;99641;-70
2022/12/18 00:06:27;;;;;;;72.20;34.47;;;;;;;;;;4929539;28;100740;-70
2022/12/18 00:08:55;;;;;;;70.60;34.55;;;;;;;;;;4926727;28;98924;-71
2022/12/18 00:11:23;;;;;;;62.85;31.40;;;;;;;;;;4927140;28;98943;-71
2022/12/18 00:13:50;;;;;;;74.57;34.85;;;;;;;;;;4927801;28;100075;-72
2022/12/18 00:16:20;;;;;;;65.35;32.08;;;;;;;;;;4927301;28;99187;-69
2022/12/18 00:18:47;;;;;;;76.25;32.58;;;;;;;;;;4927288;28;100565;-71
2022/12/18 00:21:14;;;;;;;67.05;34.10;;;;;;;;;;4928161;28;99491;-70
2022/12/18 00:23:41;;;;;;;70.38;34.55;;;;;;;;;;4925049;28;99580;-71
2022/12/18 00:26:14;;;;;;;71.18;35.92;;;;;;;;;;4927376;28;99995;-72
2022/12/18 00:28:41;;;;;;;;;;;;;;;;;;4930226;28;100981;-69
2022/12/18 00:31:09;;;;;;;71.80;34.45;;;;;;;;;;4924480;28;128593;-71
2022/12/18 00:33:35;;;;;;;82.80;36.90;;;;;;;;;;4927141;28;100501;-71
2022/12/18 00:36:02;;;;;;;68.75;33.13;;;;;;;;;;4927406;28;98970;-72
2022/12/18 00:38:31;;;;;;;69.18;34.25;;;;;;;;;;4926363;28;100159;-70
2022/12/18 00:40:57;;;;;;;74.50;33.67;;;;;;;;;;4927080;28;99342;-71
2022/12/18 00:43:23;;;;;;;75.60;36.33;;;;;;;;;;4927303;28;99254;-72
2022/12/18 00:45:51;;;;;;;88.32;36.50;;;;;;;;;;4925450;28;101583;-71
2022/12/18 00:48:18;;;;;;;78.07;36.72;;;;;;;;;;4928092;28;99938;-71
2022/12/18 00:50:44;;;;;;;74.72;36.58;;;;;;;;;;4929751;28;99173;-71
2022/12/18 00:53:11;;;;;;;69.22;29.60;;;;;;;;;;4926511;28;99942;-70
2022/12/18 00:55:39;;;;;;;71.25;34.05;;;;;;;;;;4927267;28;100095;-70
2022/12/18 00:58:05;;;;;;;73.82;35.72;;;;;;;;;;4925136;28;100124;-72
2022/12/18 01:00:34;;;;;;;88.78;37.72;;;;;;;;;;4926444;28;99212;-71
2022/12/18 01:03:01;;;;;;;82.65;36.63;;;;;;;;;;4927110;28;98881;-71
2022/12/18 01:05:27;;;;;;;84.78;37.65;;;;;;;;;;4926054;28;99190;-71
2022/12/18 01:07:55;;;;;;;83.72;37.03;;;;;;;;;;4927080;28;99288;-71
2022/12/18 01:10:21;;;;;;;84.88;38.38;;;;;;;;;;4927017;28;99148;-70
2022/12/18 01:12:48;;;;;;;69.95;31.73;;;;;;;;;;4929153;28;99331;-71
2022/12/18 01:15:17;;;;;;;78.80;35.90;;;;;;;;;;4926583;28;99956;-70
2022/12/18 01:17:43;;;;;;;75.57;36.60;;;;;;;;;;4926113;28;99274;-72
2022/12/18 01:20:10;;;;;;;75.63;35.33;;;;;;;;;;4926353;28;99958;-71
2022/12/18 01:22:37;;;;;;;62.25;30.00;;;;;;;;;;4926586;28;98751;-70
2022/12/18 01:25:06;;;;;;;77.35;34.08;;;;;;;;;;4926567;28;99030;-70
2022/12/18 01:27:33;;;;;;;75.15;35.72;;;;;;;;;;4923803;28;101853;-69
2022/12/18 01:30:02;;;;;;;73.05;33.63;;;;;;;;;;4926489;28;99807;-71
2022/12/18 01:32:30;;;;;;;77.88;33.55;;;;;;;;;;4929571;28;99049;-72
2022/12/18 01:34:56;;;;;;;72.82;34.63;;;;;;;;;;4924477;28;98917;-71
2022/12/18 01:37:23;;;;;;;72.55;34.40;;;;;;;;;;4924737;28;99378;-72
2022/12/18 01:39:49;;;;;;;75.68;35.17;;;;;;;;;;4924458;28;99589;-72
2022/12/18 01:42:16;;;;;;;84.03;36.35;;;;;;;;;;4925052;28;99303;-70
2022/12/18 01:45:01;;;;;;;74.43;34.00;;;;;;;;;;4926042;28;100164;-72
2022/12/18 01:47:40;;;;;;;78.50;34.30;;;;;;;;;;4925819;28;99211;-71
2022/12/18 01:50:06;;;;;;;67.80;31.70;;;;;;;;;;4926329;28;99247;-72
2022/12/18 01:52:33;;;;;;;72.45;31.30;;;;;;;;;;4926004;28;98807;-70
2022/12/18 01:55:01;;;;;;;76.22;34.80;;;;;;;;;;4929214;28;99859;-70
2022/12/18 01:57:28;;;;;;;83.25;37.60;;;;;;;;;;4925684;28;98953;-71
2022/12/18 01:59:56;;;;;;;72.53;33.92;;;;;;;;;;4925294;28;101375;-72
2022/12/18 02:02:23;;;;;;;79.78;36.35;;;;;;;;;;4925352;28;99940;-70
2022/12/18 02:04:51;;;;;;;81.60;36.53;;;;;;;;;;4924734;28;100040;-70
2022/12/18 02:07:21;;;;;;;65.00;32.47;;;;;;;;;;4925482;28;100090;-70
2022/12/18 02:09:52;;;;;;;75.82;34.35;;;;;;;;;;4924014;28;101044;-70
2022/12/18 02:12:24;;;;;;;75.93;34.47;;;;;;;;;;4925909;28;98853;-70
2022/12/18 02:14:50;;;;;;;72.13;34.92;;;;;;;;;;4926311;28;99071;-71
2022/12/18 02:17:21;;;;;;;78.15;35.58;;;;;;;;;;4927519;28;99331;-70
2022/12/18 02:19:48;;;;;;;68.53;34.83;;;;;;;;;;4925767;28;99551;-70
2022/12/18 02:22:20;;;;;;;73.28;34.63;;;;;;;;;;4924815;28;99118;-70
2022/12/18 02:24:57;;;;;;;68.63;33.47;;;;;;;;;;4923005;28;99005;-70
2022/12/18 02:27:24;;;;;;;74.55;35.00;;;;;;;;;;4925632;28;99350;-70
2022/12/18 02:29:51;;;;;;;74.00;33.53;;;;;;;;;;4923945;28;99103;-70
2022/12/18 02:32:38;;;;;;;61.92;27.65;;;;;;;;;;4925035;28;99797;-70
2022/12/18 02:35:05;;;;;;;74.38;35.08;;;;;;;;;;4924353;28;100088;-71
2022/12/18 02:37:34;;;;;;;74.35;33.85;;;;;;;;;;4923618;28;101426;-71
2022/12/18 02:40:03;;;;;;;79.97;36.13;;;;;;;;;;4927184;28;101369;-72
2022/12/18 02:42:31;;;;;;;80.15;34.60;;;;;;;;;;4923528;28;99948;-71
2022/12/18 02:44:59;;;;;;;73.65;34.97;;;;;;;;;;4923251;28;99067;-71
2022/12/18 02:47:32;;;;;;;67.55;32.90;;;;;;;;;;4925851;28;100294;-70
2022/12/18 02:50:11;;;;;;;66.82;32.90;;;;;;;;;;4928087;28;99175;-70
2022/12/18 02:52:38;;;;;;;65.80;33.60;;;;;;;;;;4927019;28;100652;-70
2022/12/18 02:55:26;;;;;;;69.45;34.35;;;;;;;;;;4927166;28;99597;-70
2022/12/18 02:57:57;;;;;;;67.75;34.13;;;;;;;;;;4926223;28;101604;-71
2022/12/18 03:00:32;;;;;;;65.68;32.53;;;;;;;;;;4927311;28;99940;-71
2022/12/18 03:03:05;;;;;;;68.82;33.35;;;;;;;;;;4930741;28;101978;-70
2022/12/18 03:05:43;;;;;;;63.03;31.77;;;;;;;;;;4927711;28;99755;-70
2022/12/18 03:08:14;;;;;;;62.97;31.40;;;;;;;;;;4908706;28;101177;-70
2022/12/18 03:10:49;;;;;;;68.60;32.17;;;;;;;;;;4907907;28;98997;-70
2022/12/18 03:13:20;;;;;;;61.85;31.33;;;;;;;;;;4907910;28;98985;-71
2022/12/18 03:15:48;;;;;;;61.83;29.00;;;;;;;;;;4925289;28;101588;-70
2022/12/18 03:18:18;;;;;;;64.65;32.03;;;;;;;;;;4927134;28;100005;-71
2022/12/18 03:20:46;;;;;;;65.88;29.23;;;;;;;;;;4926007;28;101991;-71
2022/12/18 03:23:20;;;;;;;56.60;27.90;;;;;;;;;;4926834;28;101843;-70
2022/12/18 03:25:53;;;;;;;59.60;29.23;;;;;;;;;;4929438;28;98641;-71
2022/12/18 03:28:22;;;;;;;53.15;27.75;;;;;;;;;;4926930;28;99273;-71
2022/12/18 03:30:56;;;;;;;59.78;30.30;;;;;;;;;;4926849;28;99126;-70
2022/12/18 03:33:29;;;;;;;58.35;28.98;;;;;;;;;;4926672;28;101216;-70
2022/12/18 03:35:56;;;;;;;54.50;29.05;;;;;;;;;;4926523;28;100945;-70
2022/12/18 03:38:23;;;;;;;52.78;28.27;;;;;;;;;;4926960;28;101114;-71
2022/12/18 03:41:01;;;;;;;60.13;29.58;;;;;;;;;;4926683;28;101385;-70
2022/12/18 03:43:52;;;;;;;51.95;27.08;;;;;;;;;;4926622;28;99259;-71
2022/12/18 03:46:22;;;;;;;55.13;28.80;;;;;;;;;;4930159;28;99196;-71
2022/12/18 03:48:58;;;;;;;56.78;27.75;;;;;;;;;;4925294;28;103075;-71
2022/12/18 03:51:36;;;;;;;51.83;27.80;;;;;;;;;;4926253;28;100963;-71
2022/12/18 03:54:04;;;;;;;54.50;26.75;;;;;;;;;;4926209;28;99826;-71
2022/12/18 03:56:38;;;;;;;53.35;28.50;;;;;;;;;;4926685;28;99251;-70
2022/12/18 03:59:07;;;;;;;55.92;28.20;;;;;;;;;;4926353;28;99031;-70
2022/12/18 04:01:35;;;;;;;46.90;26.15;;;;;;;;;;4927028;28;98889;-70
2022/12/18 04:04:03;;;;;;;57.08;26.38;;;;;;;;;;4926447;28;100196;-70
2022/12/18 04:06:33;;;;;;;49.45;26.50;;;;;;;;;;4926215;28;101367;-70
2022/12/18 04:09:00;;;;;;;47.53;26.15;;;;;;;;;;4928675;28;101289;-71
2022/12/18 04:11:28;;;;;;;48.83;27.20;;;;;;;;;;4925948;28;101327;-71
2022/12/18 04:13:58;;;;;;;42.50;23.92;;;;;;;;;;4926164;28;101501;-71
2022/12/18 04:16:25;;;;;;;46.63;25.92;;;;;;;;;;4926482;28;100196;-71
2022/12/18 04:18:54;;;;;;;57.70;26.13;;;;;;;;;;4926021;28;100005;-70
2022/12/18 04:21:23;;;;;;;44.10;24.10;;;;;;;;;;4925990;28;100401;-70
2022/12/18 04:23:51;;;;;;;41.85;22.52;;;;;;;;;;4925002;28;101107;-70
2022/12/18 04:26:20;;;;;;;40.58;22.60;;;;;;;;;;4926246;28;99150;-70
2022/12/18 04:28:58;;;;;;;40.80;23.63;;;;;;;;;;4926084;28;101483;-70
2022/12/18 04:31:24;;;;;;;42.17;22.30;;;;;;;;;;4929146;28;99527;-71
2022/12/18 04:33:51;;;;;;;43.38;25.15;;;;;;;;;;4925909;28;100976;-70
2022/12/18 04:36:17;;;;;;;39.35;19.92;;;;;;;;;;4926810;28;100594;-71
2022/12/18 04:38:45;;;;;;;46.35;23.98;;;;;;;;;;4925120;28;100143;-70
2022/12/18 04:41:14;;;;;;;46.95;24.15;;;;;;;;;;4922690;28;99797;-70
2022/12/18 04:43:43;;;;;;;32.45;21.42;;;;;;;;;;4905834;28;99627;-70
2022/12/18 04:46:09;;;;;;;44.65;25.58;;;;;;;;;;4908376;28;99192;-70
2022/12/18 04:48:36;;;;;;;41.53;23.15;;;;;;;;;;4918698;28;99784;-70
2022/12/18 04:51:03;;;;;;;42.22;22.98;;;;;;;;;;4916869;28;99349;-70
2022/12/18 04:53:29;;;;;;;43.15;22.60;;;;;;;;;;4922225;28;100398;-71
2022/12/18 04:56:09;;;;;;;38.45;23.50;;;;;;;;;;4917898;28;99148;-70
2022/12/18 04:58:36;;;;;;;42.20;23.20;;;;;;;;;;4926113;28;99779;-70
2022/12/18 05:01:03;;;;;;;34.08;21.85;;;;;;;;;;4927126;28;99016;-71
2022/12/18 05:03:29;;;;;;;34.22;21.55;;;;;;;;;;4925663;28;101186;-70
2022/12/18 05:05:56;;;;;;;39.65;21.95;;;;;;;;;;4926279;28;100367;-71
2022/12/18 05:08:22;;;;;;;33.20;20.60;;;;;;;;;;4926189;28;100150;-71
2022/12/18 05:10:49;;;;;;;39.55;20.80;;;;;;;;;;4925717;28;100233;-70
2022/12/18 05:13:15;;;;;;;37.67;20.65;;;;;;;;;;4926259;28;99087;-71
2022/12/18 05:15:41;;;;;;;34.03;19.60;;;;;;;;;;4930166;28;99259;-71
2022/12/18 05:18:08;;;;;;;33.95;19.88;;;;;;;;;;4927306;28;99162;-71
2022/12/18 05:20:34;;;;;;;39.15;22.75;;;;;;;;;;4926617;28;99129;-71
2022/12/18 05:23:01;;;;;;;32.25;18.52;;;;;;;;;;4926147;28;100345;-70
2022/12/18 05:25:27;;;;;;;29.40;19.48;;;;;;;;;;4925865;28;99958;-70
2022/12/18 05:27:54;;;;;;;40.97;20.88;;;;;;;;;;4926958;28;99347;-70
2022/12/18 05:30:20;;;;;;;45.42;20.35;;;;;;;;;;4927210;28;99476;-70
2022/12/18 05:32:46;;;;;;;35.88;18.77;;;;;;;;;;4926975;28;98931;-70
2022/12/18 05:35:13;;;;;;;35.03;20.25;;;;;;;;;;4930463;28;99293;-71
2022/12/18 05:37:39;;;;;;;33.22;19.95;;;;;;;;;;4925703;28;99936;-71
2022/12/18 05:40:09;;;;;;;31.30;19.52;;;;;;;;;;4925905;28;99317;-71
2022/12/18 05:42:35;;;;;;;30.10;18.08;;;;;;;;;;4925965;28;100309;-70
2022/12/18 05:45:02;;;;;;;34.28;20.10;;;;;;;;;;4926883;28;99005;-71
2022/12/18 05:47:28;;;;;;;33.50;18.30;;;;;;;;;;4925250;28;98821;-71
2022/12/18 05:49:55;;;;;;;29.48;17.95;;;;;;;;;;4926130;28;99676;-71
2022/12/18 05:52:21;;;;;;;35.20;21.15;;;;;;;;;;4925348;28;100212;-71
2022/12/18 05:54:48;;;;;;;34.63;19.95;;;;;;;;;;4925418;28;100976;-69
2022/12/18 05:57:14;;;;;;;29.45;20.27;;;;;;;;;;4929008;28;99477;-70
2022/12/18 05:59:41;;;;;;;34.83;18.77;;;;;;;;;;4925853;28;100121;-70
2022/12/18 06:02:07;;;;;;;32.53;19.23;;;;;;;;;;4925551;28;100225;-70
2022/12/18 06:04:34;;;;;;;33.00;20.02;;;;;;;;;;4925321;28;100093;-70
2022/12/18 06:07:03;;;;;;;32.50;19.10;;;;;;;;;;4925944;28;100331;-71
2022/12/18 06:09:29;;;;;;;33.70;20.42;;;;;;;;;;4925633;28;98967;-70
2022/12/18 06:11:56;;;;;;;34.40;19.55;;;;;;;;;;4925564;28;98967;-70
2022/12/18 06:14:22;;;;;;;34.30;21.35;;;;;;;;;;4925848;28;99081;-70
2022/12/18 06:16:50;;;;;;;32.80;18.65;;;;;;;;;;4924676;28;100768;-70
2022/12/18 06:19:16;;;;;;;32.45;19.38;;;;;;;;;;4929501;28;99175;-70
2022/12/18 06:21:43;;;;;;;33.42;19.58;;;;;;;;;;4926524;28;99658;-70
2022/12/18 06:24:09;;;;;;;28.42;19.77;;;;;;;;;;4928203;28;99944;-71
2022/12/18 06:26:39;;;;;;;39.47;20.52;;;;;;;;;;4928860;28;100247;-70
2022/12/18 06:29:05;;;;;;;34.45;21.17;;;;;;;;;;4928479;28;100179;-70
2022/12/18 06:31:32;;;;;;;27.27;16.95;;;;;;;;;;4928846;28;100053;-71
2022/12/18 06:33:58;;;;;;;31.42;18.05;;;;;;;;;;4929942;28;98890;-71
2022/12/18 06:36:25;;;;;;;39.83;20.67;;;;;;;;;;4928160;28;99150;-70
2022/12/18 06:38:52;;;;;;;36.55;20.60;;;;;;;;;;4928835;28;99033;-71
2022/12/18 06:41:19;;;;;;;33.85;19.00;;;;;;;;;;4931950;28;99323;-71
2022/12/18 06:43:46;;;;;;;36.58;19.13;;;;;;;;;;4928015;28;99884;-70
2022/12/18 06:46:12;;;;;;;33.00;17.63;;;;;;;;;;4929089;28;100075;-71
2022/12/18 06:48:39;;;;;;;33.10;20.75;;;;;;;;;;4928903;28;99152;-70
2022/12/18 06:51:05;;;;;;;36.38;19.92;;;;;;;;;;4925004;28;100145;-71
2022/12/18 06:53:32;;;;;;;38.83;20.35;;;;;;;;;;4924301;28;99098;-71
2022/12/18 06:56:02;;;;;;;33.70;20.05;;;;;;;;;;4927397;28;99639;-71
2022/12/18 06:58:35;;;;;;;31.48;19.40;;;;;;;;;;4928447;28;99091;-70
2022/12/18 07:01:02;;;;;;;33.08;20.40;;;;;;;;;;4927578;28;99256;-71
2022/12/18 07:03:28;;;;;;;35.67;20.05;;;;;;;;;;4930300;28;99704;-71
2022/12/18 07:05:55;;;;;;;30.77;18.95;;;;;;;;;;4927595;28;100066;-71
2022/12/18 07:08:21;;;;;;;36.72;22.40;;;;;;;;;;4928589;28;100386;-71
2022/12/18 07:10:48;;;;;;;36.38;21.40;;;;;;;;;;4928485;28;99151;-71
2022/12/18 07:13:21;;;;;;;28.92;17.65;;;;;;;;;;4924600;28;99313;-70
2022/12/18 07:15:47;;;;;;;33.78;19.00;;;;;;;;;;4925556;28;100686;-71
2022/12/18 07:18:14;;;;;;;34.85;19.30;;;;;;;;;;4925498;28;99971;-70
2022/12/18 07:20:40;;;;;;;26.63;17.88;;;;;;;;;;4927598;28;99556;-70
2022/12/18 07:23:06;;;;;;;32.40;19.17;;;;;;;;;;4924797;28;98731;-70
2022/12/18 07:25:34;;;;;;;32.15;16.73;;;;;;;;;;4918057;28;100849;-71
2022/12/18 07:28:01;;;;;;;23.50;16.70;;;;;;;;;;4923801;28;98927;-73
2022/12/18 07:30:27;;;;;;;28.90;16.42;;;;;;;;;;4924553;28;100011;-71
2022/12/18 07:32:53;;;;;;;25.15;16.92;;;;;;;;;;4922476;28;100745;-72
2022/12/18 07:35:20;;;;;;;29.80;16.67;;;;;;;;;;4927941;28;101112;-71
2022/12/18 07:37:50;;;;;;;31.33;17.63;;;;;;;;;;4928243;28;100383;-72
2022/12/18 07:40:17;;;;;;;25.55;16.92;;;;;;;;;;4927113;28;100411;-72
2022/12/18 07:42:43;;;;;;;27.80;16.88;;;;;;;;;;4927437;28;100139;-73
2022/12/18 07:45:09;;;;;;;29.10;17.50;;;;;;;;;;4931578;28;100615;-72
2022/12/18 07:47:36;;;;;;;28.38;18.30;;;;;;;;;;4928033;28;98550;-72
2022/12/18 07:50:03;;;;;;;25.05;17.17;;;;;;;;;;4928334;28;99139;-72
2022/12/18 07:52:29;;;;;;;25.85;15.68;;;;;;;;;;4928698;28;99093;-72
2022/12/18 07:54:56;;;;;;;26.00;16.65;;;;;;;;;;4927324;28;99971;-71
2022/12/18 07:57:22;;;;;;;23.17;15.85;;;;;;;;;;4929579;28;99058;-72
2022/12/18 08:00:09;;;;;;;24.80;15.82;;;;;;;;;;4927439;28;99367;-73
2022/12/18 08:02:38;;;;;;;27.52;15.77;;;;;;;;;;4927033;28;99343;-72
2022/12/18 08:05:04;;;;;;;30.15;16.25;;;;;;;;;;4927666;28;99887;-73
2022/12/18 08:07:32;;;;;;;25.80;16.45;;;;;;;;;;4929176;28;99907;-72
2022/12/18 08:09:58;;;;;;;26.20;17.00;;;;;;;;;;4927400;28;100284;-73
2022/12/18 08:12:25;;;;;;;28.58;17.00;;;;;;;;;;4927631;28;100008;-73
2022/12/18 08:14:51;;;;;;;25.15;16.92;;;;;;;;;;4926568;28;100242;-72
2022/12/18 08:17:18;;;;;;;24.48;16.77;;;;;;;;;;4927462;28;100063;-73
2022/12/18 08:19:45;;;;;;;28.08;17.30;;;;;;;;;;4926814;28;100172;-73
2022/12/18 08:22:11;;;;;;;29.02;18.08;;;;;;;;;;4926482;28;100465;-73
2022/12/18 08:24:37;;;;;;;31.63;16.83;;;;;;;;;;4926562;28;100075;-72
2022/12/18 08:27:04;;;;;;;34.45;17.98;;;;;;;;;;4926856;28;99805;-73
2022/12/18 08:29:51;;;;;;;23.85;15.57;;;;;;;;;;4930114;28;99419;-72
2022/12/18 08:32:17;;;;;;;27.95;17.65;;;;;;;;;;4927004;28;99983;-72
2022/12/18 08:34:43;;;;;;;23.20;13.50;;;;;;;;;;4927187;28;99176;-72
2022/12/18 08:37:10;;;;;;;23.75;17.42;;;;;;;;;;4927168;28;100332;-73
2022/12/18 08:39:36;;;;;;;29.33;18.10;;;;;;;;;;4926992;28;98838;-72
2022/12/18 08:44:48;;;;;;;24.38;16.00;;;;;;;;;;4925196;28;100113;-72
2022/12/18 08:47:14;;;;;;;22.63;15.57;;;;;;;;;;4926851;28;101038;-73
2022/12/18 08:49:40;;;;;;;24.23;16.70;;;;;;;;;;4926395;28;100246;-72
2022/12/18 08:52:07;;;;;;;25.17;16.13;;;;;;;;;;4930093;28;99929;-72
2022/12/18 08:54:33;;;;;;;26.60;16.20;;;;;;;;;;4926966;28;99232;-71
2022/12/18 08:57:00;;;;;;;28.35;16.58;;;;;;;;;;4926266;28;100311;-71
2022/12/18 08:59:29;;;;;;;28.73;16.13;;;;;;;;;;4926516;28;99999;-72
2022/12/18 09:01:56;;;;;;;28.83;17.63;;;;;;;;;;4927271;28;98606;-71
2022/12/18 09:04:22;;;;;;;23.33;16.08;;;;;;;;;;4926030;28;99236;-72
2022/12/18 09:06:59;;;;;;;23.48;17.40;;;;;;;;;;5020097;27;98229;-71
2022/12/18 09:09:25;;;;;;;20.90;16.20;;;;;;;;;;5005242;28;99553;-72
2022/12/18 09:11:52;;;;;;;26.40;16.48;;;;;;;;;;5004609;28;98263;-71
2022/12/18 09:14:19;;;;;;;26.40;18.45;;;;;;;;;;5002198;28;100033;-73
2022/12/18 09:16:46;;;;;;;26.75;19.17;;;;;;;;;;5004655;28;100046;-73
2022/12/18 09:19:12;;;;;;;29.67;19.83;;;;;;;;;;5004449;28;98313;-73
2022/12/18 09:21:38;;;;;;;26.70;18.85;;;;;;;;;;5004652;28;99441;-73
2022/12/18 09:24:12;;;;;;;30.05;18.48;;;;;;;;;;5004511;28;98970;-73
2022/12/18 09:26:38;;;;;;;29.38;18.23;;;;;;;;;;5006235;28;98264;-74
2022/12/18 09:29:07;;;;;;;23.83;16.90;;;;;;;;;;5004849;28;99415;-72
2022/12/18 09:31:33;;;;;;;26.50;16.55;;;;;;;;;;5004062;28;98383;-72
2022/12/18 09:33:59;;;;;;;24.77;16.70;;;;;;;;;;5004866;28;98857;-72
2022/12/18 09:36:26;;;;;;;25.20;16.27;;;;;;;;;;5003740;28;99569;-72
2022/12/18 09:38:53;;;;;;;23.20;16.17;;;;;;;;;;4999387;28;98531;-72
2022/12/18 09:41:33;;;;;;;27.27;15.30;;;;;;;;;;4984453;28;99692;-73
2022/12/18 09:44:01;;;;;;;23.98;15.32;;;;;;;;;;4986064;28;99987;-71
2022/12/18 09:46:30;;;;;;;22.13;15.95;;;;;;;;;;5003785;28;98277;-71
2022/12/18 09:48:59;;;;;;;22.77;14.55;;;;;;;;;;5007709;28;99398;-71
2022/12/18 09:51:31;;;;;;;19.13;15.13;;;;;;;;;;5004264;28;98459;-71
2022/12/18 09:54:06;;;;;;;21.77;14.65;;;;;;;;;;5003985;28;98805;-71
2022/12/18 09:56:35;;;;;;;25.20;16.25;;;;;;;;;;5004130;28;99870;-71
2022/12/18 09:59:02;;;;;;;18.75;14.05;;;;;;;;;;5004590;28;98175;-71
2022/12/18 10:01:29;;;;;;;15.77;11.93;;;;;;;;;;5003353;28;98489;-71
2022/12/18 10:04:09;;;;;;;18.70;13.50;;;;;;;;;;5004272;28;100155;-71
2022/12/18 10:06:39;;;;;;;16.55;13.75;;;;;;;;;;5004610;28;98292;-70
2022/12/18 10:09:06;;;;;;;17.58;12.30;;;;;;;;;;5004546;28;99833;-70
2022/12/18 10:11:41;;;;;;;19.67;13.45;;;;;;;;;;5007817;28;99886;-71
2022/12/18 10:14:18;;;;;;;20.48;12.40;;;;;;;;;;5000549;28;99390;-71
2022/12/18 10:16:50;;;;;;;18.13;13.30;;;;;;;;;;4980617;28;99161;-72
2022/12/18 10:19:18;;;;;;;19.65;12.98;;;;;;;;;;4988271;28;99462;-71
2022/12/18 10:21:59;;;;;;;20.27;12.07;;;;;;;;;;4994963;28;98657;-72
2022/12/18 10:24:50;;;;;;;21.30;12.07;;;;;;;;;;4990271;28;99953;-71
2022/12/18 10:27:18;;;;;;;21.52;12.50;;;;;;;;;;4988965;28;100200;-70
2022/12/18 10:29:45;;;;;;;15.00;12.27;;;;;;;;;;4989004;27;98402;-71
2022/12/18 10:32:22;;;;;;;16.10;11.93;;;;;;;;;;4989406;28;100083;-71
2022/12/18 10:34:49;;;;;;;19.83;12.88;;;;;;;;;;5010045;28;98593;-71
2022/12/18 10:37:25;;;;;;;15.55;12.65;;;;;;;;;;4985108;28;100137;-71
2022/12/18 10:40:11;;;;;;;18.30;13.20;;;;;;;;;;4989556;28;99215;-71
2022/12/18 10:42:45;;;;;;;16.55;13.05;;;;;;;;;;5008484;28;99340;-71
2022/12/18 10:45:13;;;;;;;19.20;13.02;;;;;;;;;;4992899;28;100459;-72
2022/12/18 10:47:44;;;;;;;14.80;12.57;;;;;;;;;;4986380;28;98944;-71
2022/12/18 10:50:18;;;;;;;13.70;11.85;;;;;;;;;;4985832;28;100028;-71
2022/12/18 10:52:52;;;;;;;17.25;12.73;;;;;;;;;;4989888;28;99155;-70
2022/12/18 10:55:18;;;;;;;16.83;12.57;;;;;;;;;;4987494;28;99170;-70
2022/12/18 10:57:48;;;;;;;17.80;12.20;;;;;;;;;;4993074;28;98805;-72
2022/12/18 11:00:25;;;;;;;17.17;12.38;;;;;;;;;;5002672;28;98834;-71
2022/12/18 11:02:51;;;;;;;20.02;12.77;;;;;;;;;;5009837;28;98328;-71
2022/12/18 11:05:29;;;;;;;20.15;13.20;;;;;;;;;;4983568;28;100141;-71
2022/12/18 11:07:56;;;;;;;17.08;10.05;;;;;;;;;;4990453;28;98339;-71
2022/12/18 11:10:29;;;;;;;16.00;11.63;;;;;;;;;;4989746;28;99382;-71
2022/12/18 11:12:56;;;;;;;21.77;12.07;;;;;;;;;;4979023;28;100530;-71
2022/12/18 11:15:29;;;;;;;19.25;11.88;;;;;;;;;;4984049;28;99524;-72
2022/12/18 11:17:55;;;;;;;17.13;12.43;;;;;;;;;;4988263;28;99987;-71
2022/12/18 11:20:33;;;;;;;16.77;11.18;;;;;;;;;;4999645;27;98349;-71
2022/12/18 11:23:01;;;;;;;13.23;11.25;;;;;;;;;;4987675;28;99953;-71
2022/12/18 11:25:29;;;;;;;15.25;12.05;;;;;;;;;;4986551;28;100059;-70
2022/12/18 11:28:00;;;;;;;17.27;12.65;;;;;;;;;;4983682;28;99269;-70
2022/12/18 11:30:31;;;;;;;16.05;11.57;;;;;;;;;;4983271;28;99392;-70
2022/12/18 11:33:04;;;;;;;14.23;10.68;;;;;;;;;;4979213;28;100004;-72
2022/12/18 11:35:35;;;;;;;13.07;10.88;;;;;;;;;;4980838;28;100046;-71
2022/12/18 11:38:04;;;;;;;13.93;11.07;;;;;;;;;;4982032;28;99905;-71
2022/12/18 11:40:36;;;;;;;17.08;11.77;;;;;;;;;;4991921;28;100708;-71
2022/12/18 11:43:10;;;;;;;16.25;11.45;;;;;;;;;;4986951;28;99674;-72
2022/12/18 11:45:42;;;;;;;13.98;11.18;;;;;;;;;;4987762;28;99927;-72
2022/12/18 11:48:22;;;;;;;16.13;10.95;;;;;;;;;;4989600;28;98217;-71
2022/12/18 11:50:52;;;;;;;12.00;9.65;;;;;;;;;;4989582;28;100430;-72
2022/12/18 11:53:19;;;;;;;18.33;11.20;;;;;;;;;;4984902;28;100089;-71
2022/12/18 11:56:12;;;;;;;15.35;11.43;;;;;;;;;;4988619;28;98329;-71
2022/12/18 11:58:39;;;;;;;;;;;;;;;;;;4998765;28;99611;-71
2022/12/18 12:01:31;;;;;;;15.55;9.93;;;;;;;;;;4973827;28;129416;-71
2022/12/18 12:04:16;;;;;;;16.23;10.85;;;;;;;;;;4992236;28;98404;-73
2022/12/18 12:06:54;;;;;;;14.60;10.80;;;;;;;;;;4985174;28;100220;-72
2022/12/18 12:09:31;;;;;;;18.42;10.85;;;;;;;;;;4978548;28;99240;-72
2022/12/18 12:12:14;;;;;;;14.55;10.75;;;;;;;;;;4977295;28;99773;-71
2022/12/18 12:14:50;;;;;;;16.30;11.70;;;;;;;;;;4988042;28;99914;-71
2022/12/18 12:17:26;;;;;;;17.50;12.23;;;;;;;;;;4985751;28;98309;-71
2022/12/18 12:20:01;;;;;;;14.63;10.73;;;;;;;;;;4987602;28;99089;-72
2022/12/18 12:22:37;;;;;;;15.40;10.73;;;;;;;;;;4987494;28;99192;-71
2022/12/18 12:25:10;;;;;;;16.95;11.10;;;;;;;;;;4987582;28;98202;-72
2022/12/18 12:27:41;;;;;;;18.33;10.52;;;;;;;;;;4989316;28;99286;-72
2022/12/18 12:30:26;;;;;;;15.50;11.85;;;;;;;;;;4988501;28;98193;-72
2022/12/18 12:33:04;;;;;;;15.82;11.75;;;;;;;;;;4984559;28;99101;-71
2022/12/18 12:35:43;;;;;;;15.82;10.50;;;;;;;;;;4984378;28;99010;-70
2022/12/18 12:38:24;;;;;;;14.50;12.15;;;;;;;;;;4989040;28;98305;-72
2022/12/18 12:40:56;;;;;;;13.02;10.90;;;;;;;;;;4985339;28;100050;-72
2022/12/18 12:43:49;;;;;;;17.13;11.88;;;;;;;;;;4987326;28;100148;-72
2022/12/18 12:46:19;;;;;;;18.75;11.93;;;;;;;;;;4985222;28;98845;-71
2022/12/18 12:48:52;;;;;;;16.52;11.43;;;;;;;;;;4987362;28;99582;-72
2022/12/18 12:51:22;;;;;;;17.63;12.35;;;;;;;;;;4991697;28;99819;-72
2022/12/18 12:53:48;;;;;;;14.63;11.57;;;;;;;;;;4981875;28;99419;-72
2022/12/18 12:56:17;;;;;;;17.02;12.90;;;;;;;;;;4979360;28;100199;-71
2022/12/18 12:59:02;;;;;;;13.25;11.13;;;;;;;;;;4978286;28;98124;-71
2022/12/18 13:01:36;;;;;;;16.70;10.70;;;;;;;;;;4979671;28;99261;-71
2022/12/18 13:04:18;;;;;;;13.63;11.52;;;;;;;;;;4983401;28;100224;-71
2022/12/18 13:06:45;;;;;;;16.67;12.02;;;;;;;;;;4981281;28;100514;-72
2022/12/18 13:09:11;;;;;;;15.68;11.82;;;;;;;;;;4987209;28;98710;-71
2022/12/18 13:14:30;;;;;;;16.08;11.77;;;;;;;;;;4983880;28;98779;-71
2022/12/18 13:17:27;;;;;;;19.50;11.90;;;;;;;;;;4982639;28;98980;-71
2022/12/18 13:20:02;;;;;;;14.10;11.68;;;;;;;;;;4964515;28;98206;-71
2022/12/18 13:22:31;;;;;;;19.58;12.32;;;;;;;;;;4984305;28;99832;-71
2022/12/18 13:24:57;;;;;;;18.10;12.05;;;;;;;;;;4987427;28;100158;-72
2022/12/18 13:27:42;;;;;;;15.48;11.07;;;;;;;;;;4987864;28;98067;-72
2022/12/18 13:30:35;;;;;;;17.98;11.65;;;;;;;;;;4984912;28;99458;-71
2022/12/18 13:33:14;;;;;;;16.40;12.00;;;;;;;;;;4983046;28;99685;-72
2022/12/18 13:35:47;;;;;;;17.98;12.52;;;;;;;;;;4991095;28;98313;-71
2022/12/18 13:38:21;;;;;;;16.23;12.25;;;;;;;;;;4987111;28;100120;-72
2022/12/18 13:40:47;;;;;;;13.73;11.55;;;;;;;;;;4968283;28;98380;-71
2022/12/18 13:43:19;;;;;;;15.30;11.32;;;;;;;;;;4968418;28;99273;-72
2022/12/18 13:45:58;;;;;;;14.18;11.63;;;;;;;;;;4967386;28;100120;-72
2022/12/18 13:48:25;;;;;;;15.80;11.88;;;;;;;;;;4987614;28;98782;-72
2022/12/18 13:50:54;;;;;;;18.52;12.40;;;;;;;;;;4986444;28;98476;-72
2022/12/18 13:53:23;;;;;;;18.40;13.10;;;;;;;;;;4989731;28;100126;-72
2022/12/18 13:55:51;;;;;;;21.23;12.50;;;;;;;;;;4990864;28;98246;-71
2022/12/18 13:58:17;;;;;;;21.63;12.55;;;;;;;;;;4993711;28;98458;-72
2022/12/18 14:00:44;;;;;;;20.98;12.90;;;;;;;;;;4989938;28;98304;-71
2022/12/18 14:03:27;;;;;;;14.25;11.95;;;;;;;;;;4991203;28;99830;-71
2022/12/18 14:05:55;;;;;;;13.98;12.25;;;;;;;;;;4989789;28;100339;-70
2022/12/18 14:08:21;;;;;;;17.85;13.38;;;;;;;;;;4990620;28;98269;-70
2022/12/18 14:10:49;;;;;;;19.88;14.27;;;;;;;;;;4990658;28;100195;-71
2022/12/18 14:13:23;;;;;;;15.07;11.77;;;;;;;;;;4990126;28;99347;-72
2022/12/18 14:15:49;;;;;;;;;;;;;;;;;;4991426;28;98173;-72
2022/12/18 14:18:20;;;;;;;22.58;10.77;;;;;;;;;;4990346;28;122402;-71
2022/12/18 14:20:48;;;;;;;15.25;9.23;;;;;;;;;;4993100;28;99814;-72
2022/12/18 14:23:26;;;;;;;18.58;12.50;;;;;;;;;;4990831;28;99382;-71
2022/12/18 14:25:54;;;;;;;21.35;12.32;;;;;;;;;;4989982;28;99141;-71
2022/12/18 14:28:26;;;;;;;23.27;12.80;;;;;;;;;;4989890;28;98332;-71
2022/12/18 14:30:53;;;;;;;17.33;12.48;;;;;;;;;;4990482;28;99600;-72
2022/12/18 14:33:26;;;;;;;17.90;12.85;;;;;;;;;;4990439;28;100104;-72
2022/12/18 14:35:53;;;;;;;18.42;13.65;;;;;;;;;;4989964;28;99045;-73